Mr. Cass — WDB5593 — position and weather

sailwx.info

Track history (hours):
 
Tides and Currents Weather Stations Pressure Air Temp Water Temp Dewpoint Dewpoint Depression Visibility Wind Speed Wind Dir Waves Ship Positions

Mr. Cass

Owner: Cass Marine Towing LLC, Marrero, LA. More information available from US FCC via Universal Licensing System and Coast Guard Vessel Documentation Center.

Last reported at 2015-Aug-30 03:20 UTC. Time now 2015-Aug-30 22:33 UTC.
Position N 29°54' W 090°07'.

Length 17 m; draft 3.5 m.

Type: Towing. MMSI: 366911310.

Date/timePositionNaut miles runAvg speedWind from/ knotsBaromVisibWave heightAir tempDewpointWater temp
2015-Aug-30 03:20N 29°54' W 090°07'0 0.0
2015-Aug-30 02:16N 29°54' W 090°07'0 0.0
2015-Aug-30 01:24N 29°54' W 090°07'0 0.0
2015-Aug-30 00:31N 29°54' W 090°07'0 0.1
2015-Aug-29 22:23N 29°54' W 090°07'0 0.2
2015-Aug-29 21:31N 29°54' W 090°07'0 0.0
2015-Aug-29 20:33N 29°54' W 090°07'0 0.0
2015-Aug-29 19:28N 29°54' W 090°07'0 0.0
2015-Aug-29 18:33N 29°54' W 090°07'0 0.0
2015-Aug-29 17:33N 29°54' W 090°07'0 0.0
2015-Aug-29 16:31N 29°54' W 090°07'3 0.1
2015-Aug-28 15:31N 29°55' W 090°04'2 0.8
2015-Aug-28 13:32N 29°55' W 090°05'1 0.1
2015-Aug-28 06:11N 29°55' W 090°06'3 4.4
2015-Aug-28 05:33N 29°57' W 090°04'2 2.3
2015-Aug-28 04:33N 29°58' W 090°02'0 0.5
2015-Aug-28 03:30N 29°58' W 090°01'0 0.0
2015-Aug-28 02:33N 29°58' W 090°01'1 1.4
2015-Aug-28 01:33N 29°60' W 090°01'0 0.1
2015-Aug-28 00:33N 30°00' W 090°01'0 0.0
2015-Aug-27 23:33N 30°00' W 090°01'0 0.0
2015-Aug-27 22:31N 30°00' W 090°01'0 0.0
2015-Aug-27 21:32N 30°00' W 090°01'0 0.0
2015-Aug-27 20:30N 30°00' W 090°01'0 0.0
2015-Aug-26 19:18N 30°00' W 090°02'3 2.9
2015-Aug-26 18:25N 29°58' W 090°02'2 1.8
2015-Aug-26 17:29N 29°57' W 090°03'5 0.2
2015-Aug-25 15:31N 29°53' W 090°04'2 2.0
2015-Aug-25 14:32N 29°55' W 090°05'2 2.0
2015-Aug-25 13:32N 29°54' W 090°07'0 0.0
2015-Aug-25 11:18N 29°54' W 090°07'0 0.0
2015-Aug-24 04:10N 29°54' W 090°07'0 0.0
2015-Aug-23 21:05N 29°54' W 090°07'0 0.1
2015-Aug-23 20:19N 29°54' W 090°07'1 0.2
2015-Aug-23 17:30N 29°55' W 090°07'4 3.9
2015-Aug-23 16:30N 29°57' W 090°03'4 4.1
2015-Aug-23 15:33N 29°56' W 089°59'1 0.6
2015-Aug-23 14:23N 29°56' W 089°58'0 0.0
2015-Aug-23 13:31N 29°56' W 089°58'0 0.0
2015-Aug-23 12:33N 29°56' W 089°58'0 0.0
2015-Aug-23 11:33N 29°56' W 089°58'0 0.0
2015-Aug-23 10:30N 29°56' W 089°58'0 0.0
2015-Aug-23 09:28N 29°56' W 089°58'6 0.1
2015-Aug-21 16:20N 29°55' W 090°05'3 4.3
2015-Aug-21 15:31N 29°57' W 090°02'5 0.3
2015-Aug-20 23:12N 29°55' W 090°08'1 0.3
2015-Aug-20 19:27N 29°56' W 090°08'3 2.7
2015-Aug-20 18:21N 29°55' W 090°05'2 2.9
2015-Aug-20 17:33N 29°57' W 090°04'3 3.0
2015-Aug-20 16:32N 29°56' W 090°00'2 0.3
2015-Aug-20 11:05N 29°56' W 089°58'  
Track history (hours):
 
Tides and Currents Weather Stations Pressure Air Temp Water Temp Dewpoint Dewpoint Depression Visibility Wind Speed Wind Dir Waves Ship Positions

Mr. Cass

Owner: Cass Marine Towing LLC, Marrero, LA. More information available from US FCC via Universal Licensing System and Coast Guard Vessel Documentation Center.

Last reported at 2015-Aug-30 03:20 UTC. Time now 2015-Aug-30 22:33 UTC.
Position N 29°54' W 090°07'.

Length 17 m; draft 3.5 m.

Type: Towing. MMSI: 366911310.

Date/timePositionNaut miles runAvg speedWind from/ knotsBaromVisibWave heightAir tempDewpointWater temp
2015-Aug-30 03:20N 29°54' W 090°07'0 0.0
2015-Aug-30 02:16N 29°54' W 090°07'0 0.0
2015-Aug-30 01:24N 29°54' W 090°07'0 0.0
2015-Aug-30 00:31N 29°54' W 090°07'0 0.1
2015-Aug-29 22:23N 29°54' W 090°07'0 0.2
2015-Aug-29 21:31N 29°54' W 090°07'0 0.0
2015-Aug-29 20:33N 29°54' W 090°07'0 0.0
2015-Aug-29 19:28N 29°54' W 090°07'0 0.0
2015-Aug-29 18:33N 29°54' W 090°07'0 0.0
2015-Aug-29 17:33N 29°54' W 090°07'0 0.0
2015-Aug-29 16:31N 29°54' W 090°07'3 0.1
2015-Aug-28 15:31N 29°55' W 090°04'2 0.8
2015-Aug-28 13:32N 29°55' W 090°05'1 0.1
2015-Aug-28 06:11N 29°55' W 090°06'3 4.4
2015-Aug-28 05:33N 29°57' W 090°04'2 2.3
2015-Aug-28 04:33N 29°58' W 090°02'0 0.5
2015-Aug-28 03:30N 29°58' W 090°01'0 0.0
2015-Aug-28 02:33N 29°58' W 090°01'1 1.4
2015-Aug-28 01:33N 29°60' W 090°01'0 0.1
2015-Aug-28 00:33N 30°00' W 090°01'0 0.0
2015-Aug-27 23:33N 30°00' W 090°01'0 0.0
2015-Aug-27 22:31N 30°00' W 090°01'0 0.0
2015-Aug-27 21:32N 30°00' W 090°01'0 0.0
2015-Aug-27 20:30N 30°00' W 090°01'0 0.0
2015-Aug-26 19:18N 30°00' W 090°02'3 2.9
2015-Aug-26 18:25N 29°58' W 090°02'2 1.8
2015-Aug-26 17:29N 29°57' W 090°03'5 0.2
2015-Aug-25 15:31N 29°53' W 090°04'2 2.0
2015-Aug-25 14:32N 29°55' W 090°05'2 2.0
2015-Aug-25 13:32N 29°54' W 090°07'0 0.0
2015-Aug-25 11:18N 29°54' W 090°07'0 0.0
2015-Aug-24 04:10N 29°54' W 090°07'0 0.0
2015-Aug-23 21:05N 29°54' W 090°07'0 0.1
2015-Aug-23 20:19N 29°54' W 090°07'1 0.2
2015-Aug-23 17:30N 29°55' W 090°07'4 3.9
2015-Aug-23 16:30N 29°57' W 090°03'4 4.1
2015-Aug-23 15:33N 29°56' W 089°59'1 0.6
2015-Aug-23 14:23N 29°56' W 089°58'0 0.0
2015-Aug-23 13:31N 29°56' W 089°58'0 0.0
2015-Aug-23 12:33N 29°56' W 089°58'0 0.0
2015-Aug-23 11:33N 29°56' W 089°58'0 0.0
2015-Aug-23 10:30N 29°56' W 089°58'0 0.0
2015-Aug-23 09:28N 29°56' W 089°58'6 0.1
2015-Aug-21 16:20N 29°55' W 090°05'3 4.3
2015-Aug-21 15:31N 29°57' W 090°02'5 0.3
2015-Aug-20 23:12N 29°55' W 090°08'1 0.3
2015-Aug-20 19:27N 29°56' W 090°08'3 2.7
2015-Aug-20 18:21N 29°55' W 090°05'2 2.9
2015-Aug-20 17:33N 29°57' W 090°04'3 3.0
2015-Aug-20 16:32N 29°56' W 090°00'2 0.3
2015-Aug-20 11:05N 29°56' W 089°58'  

Dump ship's entire track history